Time;durP1;ratioP1;P1;durP2;ratioP2;P2;SDS_P1;SDS_P2;PMS_P1;PMS_P2;Temp;Humidity;BMP_temperature;BMP_pressure;BME280_temperature;BME280_humidity;BME280_pressure;Samples;Min_cycle;Max_cycle;Signal;HPM_P1;HPM_P2
2022/12/26 00:01:28;;;;;;;1.95;1.77;;;8.20;99.90;;;;;;5156713;27;20043;-78
2022/12/26 00:03:54;;;;;;;6.60;1.92;;;8.20;99.90;;;;;;5156770;27;20046;-78
2022/12/26 00:06:23;;;;;;;1.63;1.05;;;8.20;99.90;;;;;;5156601;27;20094;-78
2022/12/26 00:08:49;;;;;;;3.65;1.35;;;8.20;99.90;;;;;;5156719;27;20047;-78
2022/12/26 00:11:16;;;;;;;0.73;0.73;;;8.20;99.90;;;;;;5156619;27;20084;-79
2022/12/26 00:13:42;;;;;;;9.85;1.23;;;8.30;99.90;;;;;;5156786;27;20418;-78
2022/12/26 00:16:18;;;;;;;0.75;0.75;;;8.20;99.90;;;;;;5156771;27;20054;-78
2022/12/26 00:18:44;;;;;;;0.20;0.20;;;8.20;99.90;;;;;;5156939;27;20047;-79
2022/12/26 00:21:12;;;;;;;2.05;1.48;;;8.20;99.90;;;;;;5156212;27;20477;-79
2022/12/26 00:23:38;;;;;;;1.85;1.55;;;8.20;99.90;;;;;;5156107;27;20066;-79
2022/12/26 00:26:06;;;;;;;1.17;0.98;;;8.20;99.90;;;;;;5156473;27;20075;-79
2022/12/26 00:28:32;;;;;;;0.77;0.77;;;8.40;99.90;;;;;;5156243;27;20078;-79
2022/12/26 00:30:57;;;;;;;0.50;0.40;;;8.20;99.90;;;;;;5156494;27;20041;-79
2022/12/26 00:33:23;;;;;;;1.88;1.02;;;8.20;99.90;;;;;;5156365;27;20042;-78
2022/12/26 00:35:49;;;;;;;0.73;0.73;;;8.20;99.90;;;;;;5156215;27;20500;-78
2022/12/26 00:38:15;;;;;;;7.03;1.75;;;8.20;99.90;;;;;;5155842;27;20043;-78
2022/12/26 00:40:42;;;;;;;0.30;0.30;;;8.20;99.90;;;;;;5156220;27;20128;-78
2022/12/26 00:43:11;;;;;;;0.80;0.35;;;8.20;99.90;;;;;;5156325;27;20042;-78
2022/12/26 00:45:36;;;;;;;0.57;0.57;;;8.30;99.90;;;;;;5156088;27;20358;-79
2022/12/26 00:48:02;;;;;;;0.73;0.73;;;8.30;99.90;;;;;;5156171;27;20054;-78
2022/12/26 00:50:28;;;;;;;0.13;0.13;;;8.20;99.90;;;;;;5156192;27;20050;-78
2022/12/26 00:52:55;;;;;;;1.35;1.25;;;8.20;99.90;;;;;;5155812;27;20039;-78
2022/12/26 00:55:21;;;;;;;3.33;1.90;;;8.20;99.90;;;;;;5156209;27;20099;-78
2022/12/26 00:57:47;;;;;;;0.47;0.30;;;8.30;99.90;;;;;;5155932;27;20493;-78
2022/12/26 01:00:13;;;;;;;2.47;1.17;;;8.20;99.90;;;;;;5156110;27;20038;-78
2022/12/26 01:02:39;;;;;;;2.05;1.42;;;8.30;99.90;;;;;;5155729;27;20045;-78
2022/12/26 01:05:07;;;;;;;0.90;0.85;;;8.30;99.90;;;;;;5155967;27;20047;-78
2022/12/26 01:07:35;;;;;;;1.08;1.00;;;8.30;99.90;;;;;;5155508;27;20478;-78
2022/12/26 01:10:01;;;;;;;3.75;2.35;;;8.30;99.90;;;;;;5155971;27;20047;-78
2022/12/26 01:12:26;;;;;;;1.23;0.52;;;8.30;99.90;;;;;;5155889;27;20118;-79
2022/12/26 01:14:55;;;;;;;2.75;2.17;;;8.30;99.90;;;;;;5156095;27;20046;-79
2022/12/26 01:17:21;;;;;;;1.80;0.95;;;8.30;99.90;;;;;;5155871;27;20043;-79
2022/12/26 01:19:46;;;;;;;0.88;0.75;;;8.30;99.90;;;;;;5156188;27;20159;-79
2022/12/26 01:22:12;;;;;;;5.63;1.58;;;8.30;99.90;;;;;;5155971;27;20488;-78
2022/12/26 01:24:38;;;;;;;0.57;0.57;;;8.20;99.90;;;;;;5156496;27;20119;-79
2022/12/26 01:27:03;;;;;;;1.02;0.75;;;8.30;99.90;;;;;;5156202;27;20497;-79
2022/12/26 01:29:29;;;;;;;7.10;2.13;;;8.30;99.90;;;;;;5156454;27;20056;-79
2022/12/26 01:31:54;;;;;;;1.63;1.52;;;8.30;99.90;;;;;;5156722;27;20039;-79
2022/12/26 01:34:20;;;;;;;0.65;0.65;;;8.70;99.90;;;;;;5156247;27;20462;-79
2022/12/26 01:36:46;;;;;;;0.93;0.85;;;8.30;99.90;;;;;;5158337;27;20058;-79
2022/12/26 01:39:11;;;;;;;1.80;1.23;;;8.30;99.90;;;;;;5159918;27;20041;-79
2022/12/26 01:41:37;;;;;;;1.48;1.38;;;8.60;99.90;;;;;;5160213;27;20457;-79
2022/12/26 01:44:23;;;;;;;2.13;1.52;;;8.30;99.90;;;;;;5160346;27;20083;-78
2022/12/26 01:46:50;;;;;;;0.90;0.80;;;8.30;99.90;;;;;;5159277;27;20050;-78
2022/12/26 01:49:39;;;;;;;5.93;0.90;;;8.30;99.90;;;;;;5159412;27;20039;-79
2022/12/26 01:52:36;;;;;;;1.75;0.52;;;8.30;99.90;;;;;;5159692;27;20034;-78
2022/12/26 01:55:04;;;;;;;4.03;1.13;;;8.30;99.90;;;;;;5160041;27;20410;-79
2022/12/26 01:57:36;;;;;;;0.50;0.38;;;8.40;99.90;;;;;;5159443;27;20091;-79
2022/12/26 02:00:04;;;;;;;1.75;1.65;;;8.30;99.90;;;;;;5159849;27;20099;-79
2022/12/26 02:05:32;;;;;;;0.28;0.28;;;8.30;99.90;;;;;;5159550;27;20043;-79
2022/12/26 02:05:33;;;;;;;1.27;0.25;;;8.30;99.90;;;;;;5141184;27;20047;-79
2022/12/26 02:08:25;;;;;;;2.22;1.48;;;8.40;99.90;;;;;;5159500;27;20378;-79
2022/12/26 02:11:09;;;;;;;11.93;1.80;;;8.30;99.90;;;;;;5159461;27;20382;-79
2022/12/26 02:13:36;;;;;;;0.75;0.70;;;8.40;99.90;;;;;;5159577;27;20045;-79
2022/12/26 02:16:09;;;;;;;0.88;0.63;;;8.40;99.90;;;;;;5159572;27;20524;-79
2022/12/26 02:18:35;;;;;;;0.57;0.52;;;8.40;99.90;;;;;;5159582;27;20057;-79
2022/12/26 02:21:35;;;;;;;1.95;0.47;;;8.30;99.90;;;;;;5159990;27;20031;-79
2022/12/26 02:24:23;;;;;;;0.13;0.13;;;8.30;99.90;;;;;;5159812;27;20051;-79
2022/12/26 02:27:04;;;;;;;0.95;0.95;;;8.30;99.90;;;;;;5159900;27;20078;-79
2022/12/26 02:29:54;;;;;;;0.45;0.40;;;8.30;99.90;;;;;;5160045;27;20051;-79
2022/12/26 02:32:39;;;;;;;0.35;0.35;;;8.30;99.90;;;;;;5159294;27;20055;-79
2022/12/26 02:35:25;;;;;;;0.10;0.10;;;8.30;99.90;;;;;;5159775;27;20193;-79
2022/12/26 02:38:04;;;;;;;0.50;0.50;;;8.30;99.90;;;;;;5158714;27;20039;-79
2022/12/26 02:40:56;;;;;;;0.17;0.17;;;8.40;99.90;;;;;;5158874;27;20085;-79
2022/12/26 02:43:46;;;;;;;1.70;0.68;;;8.30;99.90;;;;;;5158869;27;20046;-78
2022/12/26 03:13:27;;;;;;;1.17;1.08;;;8.50;99.90;;;;;;5137443;27;20047;-78
2022/12/26 03:18:52;;;;;;;0.17;0.17;;;8.70;99.90;;;;;;5148804;27;20417;-78
2022/12/26 03:21:23;;;;;;;2.17;1.20;;;8.60;99.90;;;;;;5158141;27;20127;-78
2022/12/26 03:23:52;;;;;;;0.70;0.68;;;8.50;99.90;;;;;;5158064;27;20090;-79
2022/12/26 03:26:40;;;;;;;5.20;1.15;;;8.50;99.90;;;;;;5157842;27;20185;-79
2022/12/26 03:32:06;;;;;;;3.00;1.95;;;8.50;99.90;;;;;;5157564;27;20134;-79
2022/12/26 03:34:33;;;;;;;2.92;2.20;;;8.60;99.90;;;;;;5157207;27;20075;-79
2022/12/26 03:37:25;;;;;;;0.88;0.85;;;8.60;99.90;;;;;;5157271;27;20050;-79
2022/12/26 04:46:52;;;;;;;4.70;2.45;;;8.70;99.90;;;;;;5072076;28;20056;-79
2022/12/26 04:52:05;;;;;;;1.55;1.45;;;8.70;99.90;;;;;;5156697;27;20053;-79
2022/12/26 04:54:31;;;;;;;5.05;2.60;;;8.70;99.90;;;;;;5157100;27;20477;-79
2022/12/26 04:56:56;;;;;;;2.40;1.67;;;8.70;99.90;;;;;;5156804;27;20122;-79
2022/12/26 04:59:23;;;;;;;6.18;2.45;;;8.60;99.90;;;;;;5157096;27;20091;-79
2022/12/26 05:10:19;;;;;;;2.22;1.25;;;8.50;99.90;;;;;;5138310;27;20406;-79
2022/12/26 05:12:45;;;;;;;0.90;0.82;;;8.40;99.90;;;;;;5140426;27;20127;-79
2022/12/26 05:15:11;;;;;;;3.75;2.53;;;8.30;99.90;;;;;;5142637;27;20043;-79
2022/12/26 05:29:02;;;;;;;4.43;2.55;;;8.40;99.90;;;;;;5161393;27;20051;-79
2022/12/26 05:31:28;;;;;;;1.48;1.27;;;8.40;99.90;;;;;;5162274;27;20054;-79
2022/12/26 05:34:16;;;;;;;3.20;2.63;;;8.40;99.90;;;;;;5161559;27;20042;-79
2022/12/26 05:36:49;;;;;;;0.30;0.30;;;8.40;99.90;;;;;;5161359;27;20416;-79
2022/12/26 05:39:14;;;;;;;18.80;3.08;;;8.30;99.90;;;;;;5162411;27;20074;-79
2022/12/26 05:41:40;;;;;;;2.53;1.55;;;8.30;99.90;;;;;;5162632;27;20042;-79
2022/12/26 05:44:06;;;;;;;2.30;1.65;;;8.20;99.90;;;;;;5161969;27;20047;-79
2022/12/26 05:46:32;;;;;;;3.00;2.70;;;8.10;99.90;;;;;;5142427;27;20039;-79
2022/12/26 05:48:58;;;;;;;2.53;1.02;;;8.20;99.90;;;;;;5161187;27;20492;-79
2022/12/26 05:51:23;;;;;;;8.38;2.55;;;8.70;99.90;;;;;;5161364;27;20039;-79
2022/12/26 05:53:50;;;;;;;1.30;1.20;;;8.20;99.90;;;;;;5162028;27;20500;-79
2022/12/26 05:56:17;;;;;;;1.88;1.35;;;8.20;99.90;;;;;;5161424;27;20122;-79
2022/12/26 05:58:43;;;;;;;3.60;2.47;;;8.20;99.90;;;;;;5161380;27;20047;-78
2022/12/26 06:01:19;;;;;;;1.85;1.50;;;8.30;99.90;;;;;;5161783;27;20039;-79
2022/12/26 06:03:49;;;;;;;0.35;0.35;;;8.30;99.90;;;;;;5161204;27;20056;-78
2022/12/26 06:06:16;;;;;;;2.30;2.10;;;8.30;99.90;;;;;;5161212;27;20087;-79
2022/12/26 06:08:42;;;;;;;1.73;1.35;;;8.30;99.90;;;;;;5161317;27;20050;-79
2022/12/26 06:11:10;;;;;;;1.33;1.23;;;8.30;99.90;;;;;;5161251;27;20079;-79
2022/12/26 06:13:36;;;;;;;1.42;1.33;;;8.30;99.90;;;;;;5161780;27;20062;-80
2022/12/26 06:16:06;;;;;;;1.25;1.15;;;8.30;99.90;;;;;;5161369;27;20041;-79
2022/12/26 06:18:33;;;;;;;2.75;1.67;;;8.40;99.90;;;;;;5161457;27;20088;-79
2022/12/26 06:21:01;;;;;;;3.50;2.70;;;8.40;99.90;;;;;;5141571;27;20109;-79
2022/12/26 06:23:27;;;;;;;2.05;1.80;;;8.40;99.90;;;;;;5161045;27;20038;-79
2022/12/26 06:25:54;;;;;;;4.88;1.67;;;8.40;99.90;;;;;;5161569;27;20070;-79
2022/12/26 06:28:21;;;;;;;1.23;1.13;;;8.40;99.90;;;;;;5161493;27;20046;-79
2022/12/26 06:30:47;;;;;;;5.57;2.50;;;8.50;99.90;;;;;;5141214;27;20043;-79
2022/12/26 06:33:12;;;;;;;7.03;2.75;;;8.40;99.90;;;;;;5140687;27;20051;-79
2022/12/26 06:35:38;;;;;;;2.00;1.90;;;8.40;99.90;;;;;;5141012;27;20043;-79
2022/12/26 06:38:03;;;;;;;1.17;0.80;;;8.40;99.90;;;;;;5140007;27;20047;-79
2022/12/26 06:40:29;;;;;;;2.10;1.90;;;8.40;99.90;;;;;;5139973;27;20058;-79
2022/12/26 06:42:54;;;;;;;1.92;1.80;;;8.40;99.90;;;;;;5140634;27;20046;-79
2022/12/26 06:45:20;;;;;;;0.15;0.15;;;8.40;99.90;;;;;;5140591;27;20070;-79
2022/12/26 06:47:46;;;;;;;2.03;1.08;;;8.40;99.90;;;;;;5139547;27;20393;-79
2022/12/26 06:50:12;;;;;;;1.15;1.05;;;8.40;99.90;;;;;;5140347;27;20126;-79
2022/12/26 06:52:37;;;;;;;1.58;0.95;;;8.40;99.90;;;;;;5140098;27;20047;-79
2022/12/26 06:55:04;;;;;;;2.15;1.38;;;8.50;99.90;;;;;;5139871;27;20351;-79
2022/12/26 06:57:30;;;;;;;2.45;1.45;;;8.50;99.90;;;;;;5141234;27;20082;-79
2022/12/26 06:59:55;;;;;;;1.38;1.27;;;8.40;99.90;;;;;;5161112;27;20034;-79
2022/12/26 07:02:21;;;;;;;2.38;1.23;;;8.50;99.90;;;;;;5141619;27;20042;-79
2022/12/26 07:04:46;;;;;;;0.70;0.70;;;8.40;99.90;;;;;;5160875;27;20039;-79
2022/12/26 07:07:12;;;;;;;2.42;1.48;;;8.40;99.90;;;;;;5160493;27;20074;-80
2022/12/26 07:09:37;;;;;;;0.80;0.77;;;8.40;99.90;;;;;;5141588;27;20050;-80
2022/12/26 07:12:03;;;;;;;2.35;1.85;;;8.40;99.90;;;;;;5160335;27;20450;-79
2022/12/26 07:14:29;;;;;;;1.08;0.90;;;8.50;99.90;;;;;;5159936;27;20038;-79
2022/12/26 07:16:54;;;;;;;0.80;0.80;;;8.50;99.90;;;;;;5159486;27;20046;-79
2022/12/26 07:19:20;;;;;;;2.92;1.85;;;8.50;99.90;;;;;;5160104;27;20034;-79
2022/12/26 07:21:45;;;;;;;1.42;1.30;;;8.60;99.90;;;;;;5160459;27;20118;-79
2022/12/26 07:24:16;;;;;;;1.38;1.00;;;8.60;99.90;;;;;;5159957;27;20407;-79
2022/12/26 07:26:42;;;;;;;1.77;1.55;;;8.60;99.90;;;;;;5160053;27;20091;-79
2022/12/26 07:29:09;;;;;;;1.33;1.23;;;8.60;99.90;;;;;;5159984;27;20067;-79
2022/12/26 07:31:35;;;;;;;1.77;1.58;;;8.60;99.90;;;;;;5160280;27;20043;-79
2022/12/26 07:34:01;;;;;;;1.23;1.13;;;8.60;99.90;;;;;;5160103;27;20504;-79
2022/12/26 07:36:26;;;;;;;0.52;0.30;;;8.60;99.90;;;;;;5160700;27;20122;-79
2022/12/26 07:38:52;;;;;;;3.15;1.40;;;8.60;99.90;;;;;;5159541;27;20493;-79
2022/12/26 07:44:04;;;;;;;0.60;0.55;;;8.50;99.90;;;;;;5157328;27;20129;-79
2022/12/26 07:46:30;;;;;;;0.32;0.05;;;8.60;99.90;;;;;;5156458;27;20050;-78
2022/12/26 07:48:56;;;;;;;0.40;0.40;;;8.60;99.90;;;;;;5156313;27;20416;-78
2022/12/26 07:51:21;;;;;;;1.23;1.13;;;8.50;99.90;;;;;;5154316;27;20145;-79
2022/12/26 07:53:47;;;;;;;1.70;1.40;;;8.50;99.90;;;;;;5153606;27;20043;-78
2022/12/26 07:56:13;;;;;;;2.17;0.75;;;8.60;99.90;;;;;;5153852;27;20117;-79
2022/12/26 07:58:39;;;;;;;2.20;2.00;;;8.60;99.90;;;;;;5153031;27;20127;-79
2022/12/26 08:01:08;;;;;;;0.65;0.65;;;8.50;99.90;;;;;;5153179;27;20444;-78
2022/12/26 08:03:34;;;;;;;0.95;0.93;;;8.60;99.90;;;;;;5153177;27;20043;-79
2022/12/26 08:06:00;;;;;;;1.52;1.42;;;8.60;99.90;;;;;;5152754;27;20042;-78
2022/12/26 08:08:25;;;;;;;16.10;1.38;;;8.60;99.90;;;;;;5152756;27;20099;-78
2022/12/26 08:11:05;;;;;;;1.13;1.02;;;8.60;99.90;;;;;;5154882;27;20043;-79
2022/12/26 08:13:31;;;;;;;2.05;1.55;;;8.60;99.90;;;;;;5156115;27;20099;-79
2022/12/26 08:15:58;;;;;;;0.40;0.40;;;8.60;99.90;;;;;;5154161;27;20058;-79
2022/12/26 08:18:24;;;;;;;2.33;0.98;;;8.60;99.90;;;;;;5152930;27;20054;-79
2022/12/26 08:20:49;;;;;;;1.88;1.17;;;9.00;99.90;;;;;;5154100;27;20031;-79
2022/12/26 08:23:16;;;;;;;3.45;1.70;;;8.70;99.90;;;;;;5153820;27;20030;-79
2022/12/26 08:25:42;;;;;;;2.55;1.13;;;8.60;99.90;;;;;;5154360;27;20073;-79
2022/12/26 08:28:08;;;;;;;4.05;1.02;;;8.70;99.90;;;;;;5152948;27;20045;-79
2022/12/26 08:30:34;;;;;;;0.93;0.82;;;8.70;99.90;;;;;;5151943;27;20042;-79
2022/12/26 08:32:59;;;;;;;2.95;1.73;;;8.70;99.90;;;;;;5153361;27;20042;-79
2022/12/26 08:35:25;;;;;;;1.65;1.55;;;8.70;99.90;;;;;;5153237;27;20039;-79
2022/12/26 08:37:50;;;;;;;1.25;0.73;;;8.70;99.90;;;;;;5152704;27;20051;-79
2022/12/26 08:40:16;;;;;;;2.60;1.52;;;8.70;99.90;;;;;;5152291;27;20043;-79
2022/12/26 08:42:41;;;;;;;0.43;0.25;;;8.70;99.90;;;;;;5152765;27;20031;-79
2022/12/26 08:45:07;;;;;;;14.00;1.90;;;8.70;99.90;;;;;;5152354;27;20042;-79
2022/12/26 08:47:33;;;;;;;0.52;0.52;;;8.70;99.90;;;;;;5151469;27;20046;-79
2022/12/26 08:49:58;;;;;;;1.88;1.33;;;8.70;99.90;;;;;;5153321;27;20479;-79
2022/12/26 08:52:24;;;;;;;1.70;1.50;;;8.70;99.90;;;;;;5153988;27;20046;-79
2022/12/26 08:54:52;;;;;;;3.70;2.70;;;8.70;99.90;;;;;;5154069;27;20212;-79
2022/12/26 08:57:17;;;;;;;0.88;0.73;;;8.70;99.90;;;;;;5153883;27;20047;-79
2022/12/26 08:59:43;;;;;;;0.70;0.70;;;8.80;99.90;;;;;;5153568;27;20045;-79
2022/12/26 09:02:10;;;;;;;3.35;2.05;;;8.90;99.90;;;;;;5153111;27;20083;-79
2022/12/26 09:04:36;;;;;;;1.88;0.73;;;8.90;99.90;;;;;;5153516;27;20056;-79
2022/12/26 09:07:02;;;;;;;0.45;0.45;;;8.90;99.90;;;;;;5154462;27;20509;-79
2022/12/26 09:09:28;;;;;;;1.10;0.40;;;8.90;99.90;;;;;;5152666;27;20038;-79
2022/12/26 09:11:53;;;;;;;2.75;1.83;;;8.90;99.90;;;;;;5152563;27;20057;-79
2022/12/26 09:14:19;;;;;;;0.80;0.75;;;8.90;99.90;;;;;;5152380;27;20043;-79
2022/12/26 09:16:45;;;;;;;0.82;0.73;;;8.80;99.90;;;;;;5152597;27;20058;-78
2022/12/26 09:19:13;;;;;;;0.65;0.60;;;8.80;99.90;;;;;;5152186;27;20514;-79
2022/12/26 09:21:39;;;;;;;0.30;0.30;;;8.90;99.90;;;;;;5153337;27;20507;-79
2022/12/26 09:24:09;;;;;;;0.10;0.10;;;8.90;99.90;;;;;;5153502;27;20046;-79
2022/12/26 09:26:34;;;;;;;1.45;0.57;;;8.80;99.90;;;;;;5151240;27;20042;-78
2022/12/26 09:29:01;;;;;;;0.00;0.00;;;8.80;99.90;;;;;;5150535;27;20049;-78
2022/12/26 09:31:32;;;;;;;1.58;0.93;;;8.90;99.90;;;;;;5150584;27;20058;-78
2022/12/26 09:33:59;;;;;;;0.45;0.35;;;8.80;99.90;;;;;;5137764;27;20047;-79
2022/12/26 09:36:27;;;;;;;0.32;0.32;;;8.90;99.90;;;;;;5148163;27;20725;-77
2022/12/26 09:38:55;;;;;;;1.02;0.77;;;8.90;99.90;;;;;;5149285;27;20099;-78
2022/12/26 09:41:51;;;;;;;0.45;0.45;;;9.00;99.90;;;;;;5150497;27;20050;-78
2022/12/26 09:44:34;;;;;;;0.10;0.10;;;9.00;99.90;;;;;;5150844;27;20146;-78
2022/12/26 09:47:13;;;;;;;0.00;0.00;;;9.00;99.90;;;;;;5150312;27;20100;-78
2022/12/26 09:49:55;;;;;;;2.20;0.65;;;9.00;99.90;;;;;;5150335;27;20536;-78
2022/12/26 09:52:26;;;;;;;0.68;0.55;;;9.00;99.90;;;;;;5150242;27;20069;-78
2022/12/26 09:55:01;;;;;;;0.30;0.30;;;9.00;99.90;;;;;;5150186;27;20038;-78
2022/12/26 09:57:44;;;;;;;1.02;0.88;;;9.00;99.90;;;;;;5149797;27;20035;-77
2022/12/26 10:00:18;;;;;;;0.13;0.13;;;9.00;99.90;;;;;;5151372;27;20042;-78
2022/12/26 10:02:48;;;;;;;1.65;1.08;;;9.00;99.90;;;;;;5154154;27;20447;-78
2022/12/26 10:05:13;;;;;;;0.08;0.08;;;8.90;99.90;;;;;;5155617;27;20039;-78
2022/12/26 10:07:45;;;;;;;0.15;0.15;;;8.90;99.90;;;;;;5155288;27;20336;-78
2022/12/26 10:10:35;;;;;;;0.15;0.15;;;8.70;99.90;;;;;;5155472;27;20035;-79
2022/12/26 10:13:13;;;;;;;0.00;0.00;;;8.50;99.90;;;;;;5153858;27;20465;-79
2022/12/26 10:15:52;;;;;;;0.28;0.28;;;8.10;99.90;;;;;;5155060;27;20050;-79
2022/12/26 10:18:48;;;;;;;11.98;0.30;;;7.70;99.90;;;;;;5154367;27;20078;-78
2022/12/26 10:21:52;;;;;;;2.17;1.08;;;7.50;99.90;;;;;;5153212;27;20053;-78
2022/12/26 10:24:21;;;;;;;0.00;0.00;;;7.30;99.90;;;;;;5152708;27;20477;-78
2022/12/26 10:26:54;;;;;;;5.88;2.08;;;7.20;99.90;;;;;;5151474;27;20095;-78
2022/12/26 10:29:20;;;;;;;0.00;0.00;;;7.10;99.90;;;;;;5153958;27;20060;-78
2022/12/26 10:31:51;;;;;;;1.77;0.65;;;7.40;99.90;;;;;;5154013;27;20054;-79
2022/12/26 10:34:22;;;;;;;0.57;0.47;;;7.50;99.90;;;;;;5154252;27;20386;-79
2022/12/26 10:36:50;;;;;;;0.00;0.00;;;7.60;70.60;;;;;;5152750;27;20691;-78
2022/12/26 10:39:38;;;;;;;8.27;2.80;;;7.70;1.00;;;;;;5149699;27;20054;-79
2022/12/26 10:42:38;;;;;;;8.52;2.17;;;7.80;99.90;;;;;;5151029;27;20030;-78
2022/12/26 10:45:44;;;;;;;0.85;0.65;;;7.80;99.90;;;;;;5153130;27;20049;-79
2022/12/26 10:48:13;;;;;;;3.60;1.55;;;7.90;99.90;;;;;;5106510;28;20088;-78
2022/12/26 10:50:43;;;;;;;0.20;0.20;;;7.90;99.90;;;;;;5111035;28;20090;-78
2022/12/26 10:53:13;;;;;;;0.10;0.10;;;7.80;99.90;;;;;;5112267;28;20071;-78
2022/12/26 10:55:38;;;;;;;0.00;0.00;;;7.80;99.90;;;;;;5112199;28;20054;-78
2022/12/26 10:58:22;;;;;;;0.50;0.50;;;7.80;99.90;;;;;;5111704;28;20063;-78
2022/12/26 11:00:48;;;;;;;0.00;0.00;;;7.80;99.90;;;;;;5091870;28;20048;-78
2022/12/26 11:03:16;;;;;;;0.80;0.80;;;8.70;99.90;;;;;;5091333;28;20048;-78
2022/12/26 11:05:55;;;;;;;0.10;0.10;;;7.50;99.90;;;;;;5091421;28;20510;-78
2022/12/26 11:08:29;;;;;;;0.00;0.00;;;7.40;99.90;;;;;;5105994;28;20444;-78
2022/12/26 11:11:08;;;;;;;0.00;0.00;;;7.30;99.90;;;;;;5112099;28;20127;-79
2022/12/26 11:13:58;;;;;;;0.35;0.30;;;7.20;99.90;;;;;;5112310;28;20047;-79
2022/12/26 11:16:30;;;;;;;0.28;0.28;;;7.10;99.90;;;;;;5111564;28;20035;-79
2022/12/26 11:18:56;;;;;;;0.00;0.00;;;7.10;99.90;;;;;;5108338;28;20031;-79
2022/12/26 11:21:25;;;;;;;0.00;0.00;;;7.10;99.90;;;;;;5111031;28;20039;-79
2022/12/26 11:24:09;;;;;;;0.00;0.00;;;7.10;99.90;;;;;;5111555;28;20463;-79
2022/12/26 11:26:38;;;;;;;0.00;0.00;;;7.10;99.90;;;;;;5111497;28;20046;-78
2022/12/26 11:29:15;;;;;;;0.00;0.00;;;7.10;99.90;;;;;;5110375;28;20118;-78
2022/12/26 11:31:49;;;;;;;7.78;0.75;;;7.00;99.90;;;;;;5111326;28;20044;-78
2022/12/26 11:34:24;;;;;;;0.00;0.00;;;7.00;99.90;;;;;;5111361;28;20047;-78
2022/12/26 11:36:50;;;;;;;1.15;1.02;;;6.90;99.90;;;;;;5110760;28;20044;-78
2022/12/26 11:39:28;;;;;;;0.00;0.00;;;6.90;99.90;;;;;;5111165;28;20431;-78
2022/12/26 11:41:54;;;;;;;0.00;0.00;;;6.90;99.90;;;;;;5111800;28;20134;-79
2022/12/26 11:44:33;;;;;;;0.00;0.00;;;6.90;1.00;;;;;;5110328;28;20044;-78
2022/12/26 11:47:10;;;;;;;0.00;0.00;;;6.90;99.90;;;;;;5138299;27;20046;-79
2022/12/26 11:49:46;;;;;;;0.00;0.00;;;7.00;99.90;;;;;;5143762;27;20106;-78
2022/12/26 11:52:54;;;;;;;0.10;0.10;;;7.00;99.90;;;;;;5153168;27;20039;-78
2022/12/26 11:55:32;;;;;;;0.80;0.57;;;7.00;99.90;;;;;;5118690;27;20541;-78
2022/12/26 11:58:20;;;;;;;0.52;0.38;;;7.10;75.80;;;;;;5152907;27;20110;-77
2022/12/26 12:00:48;;;;;;;0.00;0.00;;;7.20;99.90;;;;;;5153313;27;20094;-78
2022/12/26 12:03:28;;;;;;;3.40;1.45;;;7.20;99.90;;;;;;5154084;27;20137;-78
2022/12/26 12:06:11;;;;;;;1.30;0.60;;;8.20;99.90;;;;;;5136306;27;20079;-78
2022/12/26 12:08:52;;;;;;;0.00;0.00;;;7.20;1.00;;;;;;5154505;27;20038;-78
2022/12/26 12:11:50;;;;;;;1.30;1.00;;;7.20;99.90;;;;;;5154372;27;20568;-78
2022/12/26 12:14:42;;;;;;;0.00;0.00;;;7.20;1.00;;;;;;5153183;27;20082;-78
2022/12/26 12:17:25;;;;;;;0.35;0.35;;;7.20;1.00;;;;;;5147539;27;20046;-79
2022/12/26 12:20:14;;;;;;;0.00;0.00;;;7.20;99.90;;;;;;5151075;27;20042;-78
2022/12/26 12:22:40;;;;;;;0.00;0.00;;;7.20;92.50;;;;;;5153143;27;20077;-79
2022/12/26 12:25:11;;;;;;;0.17;0.15;;;7.20;99.90;;;;;;5152714;27;20046;-79
2022/12/26 12:27:58;;;;;;;0.00;0.00;;;7.20;99.90;;;;;;5152694;27;20501;-79
2022/12/26 12:30:35;;;;;;;0.05;0.05;;;7.20;99.90;;;;;;5152612;27;20125;-78
2022/12/26 12:33:17;;;;;;;0.10;0.10;;;7.30;99.90;;;;;;5151321;27;20050;-78
2022/12/26 12:36:10;;;;;;;0.00;0.00;;;7.20;99.90;;;;;;5142290;27;20087;-78
2022/12/26 12:39:04;;;;;;;0.00;0.00;;;7.30;99.90;;;;;;5147509;27;20134;-78
2022/12/26 12:42:08;;;;;;;2.42;0.80;;;7.30;1.00;;;;;;5151227;27;20483;-78
2022/12/26 12:44:52;;;;;;;0.47;0.45;;;7.30;1.00;;;;;;5152433;27;20049;-78
2022/12/26 12:47:48;;;;;;;0.50;0.38;;;7.30;99.90;;;;;;5152030;27;20647;-78
2022/12/26 12:50:31;;;;;;;;;;;7.30;99.90;;;;;;5153055;27;20050;-78
2022/12/26 12:53:11;;;;;;;0.10;0.10;;;7.30;99.90;;;;;;5152502;27;19926;-78
2022/12/26 12:55:55;;;;;;;1.30;0.88;;;7.10;88.40;;;;;;5152523;27;20088;-78
2022/12/26 12:58:24;;;;;;;0.38;0.15;;;7.00;51.30;;;;;;5152362;27;20075;-78
2022/12/26 13:00:59;;;;;;;10.13;1.65;;;6.90;99.90;;;;;;5152513;27;20046;-78
2022/12/26 13:03:57;;;;;;;0.00;0.00;;;6.80;99.90;;;;;;5152360;27;20543;-79
2022/12/26 13:06:42;;;;;;;0.85;0.65;;;6.70;99.90;;;;;;5152500;27;20103;-78
2022/12/26 13:09:17;;;;;;;0.75;0.30;;;6.40;99.90;;;;;;5142494;27;20034;-78
2022/12/26 13:12:01;;;;;;;0.45;0.45;;;6.20;99.90;;;;;;5146985;27;20103;-79
2022/12/26 13:14:42;;;;;;;0.00;0.00;;;6.10;1.00;;;;;;5143701;27;20061;-78
2022/12/26 13:17:22;;;;;;;3.95;0.70;;;6.20;1.00;;;;;;5143770;27;20047;-78
2022/12/26 13:19:59;;;;;;;0.30;0.22;;;6.20;1.00;;;;;;5148284;27;20046;-78
2022/12/26 13:25:26;;;;;;;0.15;0.10;;;6.10;1.00;;;;;;5133935;28;20051;-78
2022/12/26 13:28:08;;;;;;;0.52;0.32;;;6.30;99.90;;;;;;5150685;27;20043;-78
2022/12/26 13:30:34;;;;;;;3.17;1.17;;;6.40;99.90;;;;;;5150468;27;20496;-78
2022/12/26 13:33:00;;;;;;;0.10;0.10;;;6.40;99.90;;;;;;5136523;27;20131;-79
2022/12/26 13:35:48;;;;;;;0.00;0.00;;;6.50;99.90;;;;;;5153448;27;20044;-79
2022/12/26 13:38:14;;;;;;;0.32;0.32;;;6.50;99.90;;;;;;5153552;27;20042;-78
2022/12/26 13:40:51;;;;;;;14.32;2.22;;;6.60;99.90;;;;;;5153649;27;20122;-79
2022/12/26 13:46:41;;;;;;;0.05;0.05;;;6.70;1.00;;;;;;5153537;27;20054;-79
2022/12/26 13:49:38;;;;;;;1.10;0.90;;;6.70;99.90;;;;;;5153592;27;20035;-79
2022/12/26 13:52:09;;;;;;;0.10;0.10;;;6.60;99.90;;;;;;5151788;27;20066;-79
2022/12/26 13:54:36;;;;;;;1.38;1.00;;;6.60;99.90;;;;;;5150541;27;20046;-78
2022/12/26 13:57:36;;;;;;;0.40;0.32;;;6.40;99.90;;;;;;5152127;27;20171;-79
2022/12/26 14:00:04;;;;;;;0.20;0.20;;;6.40;1.00;;;;;;5148203;27;20126;-78
2022/12/26 14:03:09;;;;;;;0.77;0.55;;;6.30;99.90;;;;;;5149687;27;20034;-78
2022/12/26 14:06:02;;;;;;;0.00;0.00;;;6.30;99.90;;;;;;5150907;27;20452;-78
2022/12/26 14:08:40;;;;;;;0.20;0.20;;;6.40;1.00;;;;;;5149346;27;20053;-78
2022/12/26 14:11:14;;;;;;;0.00;0.00;;;6.40;99.90;;;;;;5152133;27;20150;-78
2022/12/26 14:13:48;;;;;;;0.00;0.00;;;6.40;99.90;;;;;;5152450;27;20533;-78
2022/12/26 14:16:19;;;;;;;0.10;0.10;;;6.40;1.00;;;;;;5146583;27;20699;-78
2022/12/26 14:19:00;;;;;;;0.00;0.00;;;6.10;99.90;;;;;;5153310;27;20046;-78
2022/12/26 14:22:10;;;;;;;3.72;1.17;;;5.90;1.00;;;;;;5151436;27;20050;-79
2022/12/26 14:25:09;;;;;;;0.40;0.35;;;5.60;99.90;;;;;;5127053;27;20117;-78
2022/12/26 14:27:56;;;;;;;0.00;0.00;;;5.40;84.30;;;;;;5148629;27;20031;-78
2022/12/26 14:30:29;;;;;;;0.03;0.03;;;5.30;9.70;;;;;;5143041;27;20046;-78
2022/12/26 14:32:54;;;;;;;0.10;0.10;;;5.20;99.90;;;;;;5150545;27;20168;-78
2022/12/26 14:35:43;;;;;;;0.17;0.17;;;5.20;99.90;;;;;;5151231;27;20129;-78
2022/12/26 14:38:32;;;;;;;0.00;0.00;;;5.10;99.90;;;;;;5152361;27;20041;-79
2022/12/26 14:41:05;;;;;;;0.68;0.68;;;5.10;99.90;;;;;;5156138;27;20118;-78
2022/12/26 14:43:39;;;;;;;0.20;0.20;;;5.10;99.90;;;;;;5155777;27;20087;-78
2022/12/26 14:46:30;;;;;;;11.30;1.38;;;5.00;99.90;;;;;;5152942;27;20459;-78
2022/12/26 14:48:58;;;;;;;1.17;1.10;;;4.90;1.00;;;;;;5150623;27;20520;-78
2022/12/26 14:51:31;;;;;;;0.03;0.03;;;4.80;1.00;;;;;;5152815;27;20047;-78
2022/12/26 14:54:33;;;;;;;1.27;0.65;;;4.80;7.50;;;;;;5153210;27;20462;-78
2022/12/26 14:56:59;;;;;;;0.15;0.15;;;4.70;50.60;;;;;;5088933;27;20059;-78
2022/12/26 14:59:31;;;;;;;0.00;0.00;;;4.70;90.10;;;;;;5136456;27;20047;-78
2022/12/26 15:02:00;;;;;;;5.38;1.30;;;4.60;47.00;;;;;;5139323;27;20073;-78
2022/12/26 15:04:28;;;;;;;5.22;2.30;;;4.60;1.00;;;;;;5131896;27;20192;-78
2022/12/26 15:07:07;;;;;;;18.58;0.43;;;4.60;97.30;;;;;;5131263;27;20138;-78
2022/12/26 15:09:38;;;;;;;0.00;0.00;;;4.70;72.40;;;;;;5144417;27;20077;-78
2022/12/26 15:12:34;;;;;;;0.22;0.22;;;4.80;99.90;;;;;;5135152;27;20114;-78
2022/12/26 15:15:08;;;;;;;0.00;0.00;;;4.90;99.40;;;;;;5130382;27;20077;-78
2022/12/26 15:17:54;;;;;;;0.00;0.00;;;4.90;99.90;;;;;;5139769;27;20035;-78
2022/12/26 15:20:43;;;;;;;0.00;0.00;;;4.80;25.70;;;;;;5126654;27;20050;-78
2022/12/26 15:23:24;;;;;;;0.00;0.00;;;4.80;7.10;;;;;;5131478;27;20058;-78
2022/12/26 15:26:28;;;;;;;4.72;1.35;;;4.70;99.90;;;;;;5113494;27;20131;-78
2022/12/26 15:29:30;;;;;;;0.10;0.10;;;4.50;99.90;;;;;;5071071;28;20523;-78
2022/12/26 15:32:08;;;;;;;0.30;0.30;;;4.60;47.10;;;;;;5150417;27;20142;-78
2022/12/26 15:35:12;;;;;;;1.95;0.65;;;4.50;99.90;;;;;;5135333;27;20039;-78
2022/12/26 15:37:56;;;;;;;0.57;0.52;;;4.40;99.90;;;;;;5152787;27;20042;-78
2022/12/26 15:40:34;;;;;;;0.00;0.00;;;4.30;99.90;;;;;;5154431;27;20045;-78
2022/12/26 15:43:18;;;;;;;0.30;0.30;;;4.30;99.90;;;;;;5154505;27;20053;-78